Ulen, Minnesota
Current Conditions -  °F | °C
As of 10:15 AM on Saturday 25 Oct 2014 (Local Time) from K3N8 Reporting Station
Clear Clear  
Wind Chill: 40°   Ceiling: Unl
Heat Index: 47°   Visibility: 10mi
Dew Point: 32°   Wind: 17mph
Humidity: 57%   Direction: 310°NW
Pressure: 30.06"   Gusts: 23mph
Location:  47.08°N, 96.26°W
Report Text: K3N8 251515Z AUTO 31015G20KT 10SM CLR 08/00 A3006 RMK AO2 T00810000
Loading
Personal Weather Stations






























Interactive Weather Map
Tropical Storm Tracking
New forecast layout! Learn more

10-Day Weather Forecast

Advertisements
Track Severe Weather on mobile